Time;durP1;ratioP1;P1;durP2;ratioP2;P2;SDS_P1;SDS_P2;PMS_P1;PMS_P2;Temp;Humidity;BMP_temperature;BMP_pressure;BME280_temperature;BME280_humidity;BME280_pressure;Samples;Min_cycle;Max_cycle;Signal;HPM_P1;HPM_P2
2020/12/21 00:00:39;;;;;;;57.40;25.90;;;;;;;7.98;100.00;101076.39;641835;223;24799;-72
2020/12/21 00:03:07;;;;;;;47.87;23.80;;;;;;;8.10;100.00;101074.72;640151;220;24775;-72
2020/12/21 00:05:35;;;;;;;52.60;26.73;;;;;;;8.11;100.00;101072.95;629397;225;24867;-73
2020/12/21 00:08:02;;;;;;;52.73;23.97;;;;;;;8.11;100.00;101072.48;625801;225;24811;-72
2020/12/21 00:10:30;;;;;;;51.90;23.60;;;;;;;8.05;100.00;101078.11;625269;226;24836;-73
2020/12/21 00:12:59;;;;;;;51.30;24.37;;;;;;;8.08;100.00;101081.77;625412;226;24832;-72
2020/12/21 00:15:26;;;;;;;49.57;23.70;;;;;;;8.17;100.00;101086.79;625342;225;24816;-72
2020/12/21 00:17:54;;;;;;;50.23;23.90;;;;;;;8.08;100.00;101081.77;623447;229;24947;-72
2020/12/21 00:20:22;;;;;;;69.00;31.48;;;;;;;8.53;100.00;101080.77;619761;228;33066;-72
2020/12/21 00:22:50;;;;;;;56.20;26.40;;;;;;;8.21;100.00;101085.16;640683;220;24790;-72
2020/12/21 00:25:18;;;;;;;47.23;24.60;;;;;;;8.14;100.00;101078.73;621379;229;24785;-72
2020/12/21 00:27:46;;;;;;;57.23;25.50;;;;;;;8.21;100.00;101072.20;626915;229;29393;-72
2020/12/21 00:30:13;;;;;;;64.37;25.83;;;;;;;8.22;100.00;101069.97;626952;229;24822;-72
2020/12/21 00:32:41;;;;;;;57.10;23.63;;;;;;;7.99;100.00;101069.45;640967;221;24899;-73
2020/12/21 00:35:09;;;;;;;50.53;22.93;;;;;;;7.94;100.00;101080.61;638701;224;24798;-71
2020/12/21 00:37:37;;;;;;;44.50;23.77;;;;;;;7.86;100.00;101071.23;628798;226;24855;-72
2020/12/21 00:40:05;;;;;;;45.77;23.10;;;;;;;7.81;100.00;101080.63;626282;227;24841;-72
2020/12/21 00:42:33;;;;;;;51.73;23.17;;;;;;;7.85;100.00;101083.83;630859;224;25015;-72
2020/12/21 00:45:01;;;;;;;49.23;24.00;;;;;;;7.86;100.00;101080.30;625036;229;24804;-72
2020/12/21 00:47:28;;;;;;;51.77;22.97;;;;;;;7.87;100.00;101084.08;638425;224;28005;-72
2020/12/21 00:49:56;;;;;;;47.10;24.10;;;;;;;7.86;100.00;101079.83;626420;229;23828;-72
2020/12/21 00:52:24;;;;;;;48.90;22.53;;;;;;;7.81;100.00;101072.86;641462;222;29341;-73
2020/12/21 00:54:52;;;;;;;40.20;21.43;;;;;;;7.71;100.00;101077.84;632232;225;24842;-72
2020/12/21 00:57:20;;;;;;;45.47;22.93;;;;;;;7.93;100.00;101078.96;622437;229;27963;-72
2020/12/21 00:59:48;;;;;;;37.53;21.63;;;;;;;7.68;100.00;101074.64;640105;223;24790;-72
2020/12/21 01:02:15;;;;;;;44.03;22.53;;;;;;;7.65;100.00;101079.56;638807;221;24792;-72
2020/12/21 01:04:43;;;;;;;45.10;23.57;;;;;;;7.79;100.00;101080.38;638287;223;24867;-72
2020/12/21 01:07:12;;;;;;;57.27;30.00;;;;;;;8.18;100.00;101085.84;633316;224;43829;-72
2020/12/21 01:09:40;;;;;;;49.20;25.90;;;;;;;7.83;100.00;101072.75;639931;224;24768;-72
2020/12/21 01:12:07;;;;;;;44.77;22.67;;;;;;;7.74;100.00;101091.89;638102;224;24800;-72
2020/12/21 01:14:35;;;;;;;51.27;26.00;;;;;;;7.94;100.00;101081.91;639015;221;24822;-72
2020/12/21 01:17:03;;;;;;;45.50;22.80;;;;;;;7.93;100.00;101095.80;624097;229;24858;-74
2020/12/21 01:19:31;;;;;;;46.60;23.97;;;;;;;7.89;100.00;101106.02;638953;225;24764;-72
2020/12/21 01:21:59;;;;;;;46.93;23.90;;;;;;;7.95;100.00;101102.98;637149;224;24767;-73
2020/12/21 01:24:27;;;;;;;46.80;24.37;;;;;;;7.96;100.00;101104.17;640726;220;24886;-72
2020/12/21 01:26:56;;;;;;;42.93;23.67;;;;;;;7.88;100.00;101104.33;638771;224;24832;-72
2020/12/21 01:29:24;;;;;;;43.53;23.87;;;;;;;7.72;100.00;101104.55;638319;224;23814;-72
2020/12/21 01:31:52;;;;;;;40.30;22.33;;;;;;;7.74;100.00;101099.66;639682;224;27988;-72
2020/12/21 01:34:20;;;;;;;41.67;21.83;;;;;;;7.71;100.00;101092.08;637912;221;24795;-72
2020/12/21 01:36:48;;;;;;;48.03;24.57;;;;;;;7.65;100.00;101100.28;637877;224;24796;-72
2020/12/21 01:39:15;;;;;;;43.10;23.37;;;;;;;7.76;100.00;101101.31;640302;224;24832;-73
2020/12/21 01:41:43;;;;;;;41.80;23.83;;;;;;;7.70;100.00;101105.95;640414;224;24784;-72
2020/12/21 01:44:11;;;;;;;39.10;22.90;;;;;;;7.59;100.00;101107.15;625144;226;24812;-72
2020/12/21 01:46:39;;;;;;;43.77;22.97;;;;;;;7.64;100.00;101102.97;627206;226;24831;-70
2020/12/21 01:49:07;;;;;;;43.17;23.20;;;;;;;7.59;100.00;101094.67;625132;229;25074;-72
2020/12/21 01:51:35;;;;;;;44.33;22.70;;;;;;;7.52;100.00;101090.86;626202;228;24788;-72
2020/12/21 01:54:03;;;;;;;37.77;22.80;;;;;;;7.53;100.00;101098.52;628463;224;24864;-72
2020/12/21 01:56:30;;;;;;;40.47;22.70;;;;;;;7.56;100.00;101093.12;626118;229;24816;-72
2020/12/21 01:58:58;;;;;;;47.70;24.57;;;;;;;7.55;100.00;101089.34;627806;228;24806;-72
2020/12/21 02:01:26;;;;;;;41.97;22.70;;;;;;;7.47;100.00;101086.00;626729;223;24804;-73
2020/12/21 02:03:54;;;;;;;40.33;23.57;;;;;;;7.52;100.00;101082.62;627074;225;24881;-73
2020/12/21 02:06:22;;;;;;;52.10;30.27;;;;;;;7.84;100.00;101075.23;621835;229;38133;-72
2020/12/21 02:08:50;;;;;;;44.47;24.03;;;;;;;7.57;100.00;101081.83;641562;224;24775;-72
2020/12/21 02:11:18;;;;;;;37.60;22.80;;;;;;;7.59;100.00;101079.97;640875;224;24816;-72
2020/12/21 02:13:45;;;;;;;42.40;24.40;;;;;;;7.47;100.00;101080.83;626577;224;24817;-71
2020/12/21 02:16:15;;;;;;;37.63;22.00;;;;;;;7.43;100.00;101075.00;625249;228;24856;-72
2020/12/21 02:18:43;;;;;;;42.90;24.03;;;;;;;7.45;100.00;101077.02;634205;225;24833;-72
2020/12/21 02:21:11;;;;;;;49.03;29.93;;;;;;;7.76;100.00;101072.83;628914;225;36427;-73
2020/12/21 02:23:39;;;;;;;55.03;31.73;;;;;;;7.94;100.00;101071.55;629099;221;32880;-73
2020/12/21 02:26:06;;;;;;;43.53;25.63;;;;;;;7.53;100.00;101075.22;626335;229;24785;-72
2020/12/21 02:28:34;;;;;;;41.83;25.53;;;;;;;7.45;100.00;101075.73;625881;229;24895;-72
2020/12/21 02:31:02;;;;;;;39.67;24.20;;;;;;;7.39;100.00;101077.45;626261;229;24808;-71
2020/12/21 02:33:30;;;;;;;35.27;21.70;;;;;;;7.28;100.00;101073.91;638381;222;26921;-72
2020/12/21 02:35:58;;;;;;;39.73;22.97;;;;;;;7.27;100.00;101079.56;641213;223;24806;-72
2020/12/21 02:38:26;;;;;;;35.70;21.80;;;;;;;7.33;100.00;101075.28;625832;229;28003;-72
2020/12/21 02:40:54;;;;;;;43.47;23.30;;;;;;;7.25;100.00;101067.20;639239;223;24865;-72
2020/12/21 02:43:22;;;;;;;40.60;24.13;;;;;;;7.05;100.00;101078.88;638677;221;24791;-72
2020/12/21 02:45:50;;;;;;;44.37;24.77;;;;;;;6.92;100.00;101075.44;639186;224;24800;-72
2020/12/21 02:48:18;;;;;;;45.77;26.23;;;;;;;6.79;100.00;101079.28;639196;224;24797;-72
2020/12/21 02:50:45;;;;;;;48.87;27.13;;;;;;;6.74;100.00;101081.31;641085;224;24790;-72
2020/12/21 02:53:14;;;;;;;58.07;28.30;;;;;;;6.70;100.00;101077.28;641393;221;24793;-71
2020/12/21 02:55:41;;;;;;;49.53;26.20;;;;;;;6.68;100.00;101082.19;624980;229;27957;-71
2020/12/21 02:58:09;;;;;;;45.90;26.73;;;;;;;6.63;100.00;101081.67;627604;226;24810;-71
2020/12/21 03:00:37;;;;;;;50.10;26.43;;;;;;;6.64;100.00;101088.03;626088;227;25055;-72
2020/12/21 03:03:05;;;;;;;53.37;28.07;;;;;;;6.64;100.00;101095.78;623623;227;24862;-71
2020/12/21 03:05:33;;;;;;;81.67;29.20;;;;;;;6.57;100.00;101098.37;626410;228;25001;-70
2020/12/21 03:08:01;;;;;;;118.20;41.70;;;;;;;6.75;100.00;101097.19;621015;229;32686;-72
2020/12/21 03:10:29;;;;;;;60.10;29.50;;;;;;;6.67;100.00;101096.04;639387;224;24801;-72
2020/12/21 03:12:56;;;;;;;87.70;30.83;;;;;;;6.84;100.00;101090.61;643504;220;24790;-70
2020/12/21 03:15:24;;;;;;;89.43;28.93;;;;;;;7.03;100.00;101089.76;641512;223;24786;-72
2020/12/21 03:17:52;;;;;;;61.30;29.03;;;;;;;6.95;100.00;101093.33;626679;229;24819;-72
2020/12/21 03:20:20;;;;;;;53.00;27.77;;;;;;;6.99;100.00;101089.61;626772;228;31257;-71
2020/12/21 03:22:48;;;;;;;57.00;27.07;;;;;;;7.12;100.00;101091.75;640488;220;24851;-71
2020/12/21 03:25:16;;;;;;;57.67;32.90;;;;;;;7.42;100.00;101075.94;626569;225;32524;-72
2020/12/21 03:27:44;;;;;;;48.50;27.47;;;;;;;7.29;100.00;101061.34;637467;224;24785;-71
2020/12/21 03:30:11;;;;;;;54.30;27.90;;;;;;;7.39;100.00;101054.63;625181;229;26937;-71
2020/12/21 03:32:39;;;;;;;48.30;26.20;;;;;;;7.29;100.00;101060.87;638391;221;24795;-71
2020/12/21 03:35:07;;;;;;;42.90;24.93;;;;;;;7.22;100.00;101063.53;624727;229;25848;-71
2020/12/21 03:37:35;;;;;;;44.73;24.80;;;;;;;7.31;100.00;101059.48;626169;228;24864;-71
2020/12/21 03:40:03;;;;;;;43.60;25.20;;;;;;;7.35;100.00;101059.66;626114;228;24881;-71
2020/12/21 03:42:31;;;;;;;39.60;25.07;;;;;;;7.40;100.00;101056.28;640807;221;24792;-71
2020/12/21 03:44:59;;;;;;;37.10;22.17;;;;;;;7.29;100.00;101058.28;640960;224;25859;-72
2020/12/21 03:47:27;;;;;;;46.03;25.50;;;;;;;7.38;100.00;101057.67;626579;229;24806;-71
2020/12/21 03:49:55;;;;;;;43.70;24.20;;;;;;;7.40;100.00;101051.10;624551;229;27972;-71
2020/12/21 03:52:23;;;;;;;38.90;23.53;;;;;;;7.35;100.00;101048.01;641125;221;24773;-72
2020/12/21 03:54:51;;;;;;;41.17;24.40;;;;;;;7.22;100.00;101044.13;640079;224;24855;-74
2020/12/21 03:57:18;;;;;;;53.33;31.05;;;;;;;7.83;100.00;101043.80;633154;224;43507;-71
2020/12/21 03:59:46;;;;;;;47.03;25.77;;;;;;;7.47;100.00;101044.59;640616;224;23673;-70
2020/12/21 04:02:14;;;;;;;42.80;25.17;;;;;;;7.43;100.00;101045.71;624984;229;24786;-71
2020/12/21 04:04:42;;;;;;;40.90;25.10;;;;;;;7.39;100.00;101044.27;624681;229;24825;-71
2020/12/21 04:07:10;;;;;;;44.00;23.43;;;;;;;7.44;100.00;101036.55;625787;229;24792;-72
2020/12/21 04:09:39;;;;;;;42.33;23.10;;;;;;;7.44;100.00;101030.08;636686;225;24901;-71
2020/12/21 04:12:07;;;;;;;37.20;22.10;;;;;;;7.33;100.00;101029.17;626195;229;24802;-71
2020/12/21 04:14:35;;;;;;;37.53;22.70;;;;;;;7.26;100.00;101026.63;625104;226;24853;-71
2020/12/21 04:17:04;;;;;;;49.03;28.27;;;;;;;7.94;100.00;101014.09;621528;228;32757;-72
2020/12/21 04:19:32;;;;;;;38.63;23.07;;;;;;;7.35;100.00;101015.66;626104;229;23723;-71
2020/12/21 04:22:00;;;;;;;38.37;26.00;;;;;;;7.82;100.00;101012.84;621004;227;33897;-71
2020/12/21 04:24:28;;;;;;;45.55;28.92;;;;;;;8.06;100.00;101012.87;636073;220;32617;-70
2020/12/21 04:26:55;;;;;;;44.43;25.00;;;;;;;7.47;100.00;101021.77;640089;224;23720;-70
2020/12/21 04:29:23;;;;;;;46.33;25.23;;;;;;;7.64;100.00;101022.72;638812;224;24788;-70
2020/12/21 04:31:54;;;;;;;36.23;21.73;;;;;;;7.42;100.00;101033.70;641538;224;24805;-71
2020/12/21 04:34:24;;;;;;;37.00;20.93;;;;;;;7.52;100.00;101017.09;637924;220;24755;-70
2020/12/21 04:36:51;;;;;;;43.38;27.42;;;;;;;8.02;100.00;101009.66;635107;223;33079;-71
2020/12/21 04:39:22;;;;;;;37.57;21.27;;;;;;;7.48;100.00;101015.19;639765;224;24838;-70
2020/12/21 04:41:53;;;;;;;37.43;22.47;;;;;;;7.50;100.00;101017.67;626474;229;24789;-70
2020/12/21 04:44:21;;;;;;;40.00;22.47;;;;;;;7.37;100.00;101020.27;625593;225;24840;-71
2020/12/21 04:46:49;;;;;;;43.20;23.87;;;;;;;7.28;100.00;101018.29;627600;226;25109;-71
2020/12/21 04:49:17;;;;;;;51.20;29.90;;;;;;;7.76;100.00;101011.98;622593;228;32891;-71
2020/12/21 04:51:46;;;;;;;43.20;25.73;;;;;;;7.39;100.00;101013.22;626645;226;24846;-71
2020/12/21 04:54:14;;;;;;;54.77;31.33;;;;;;;7.87;100.00;101015.45;615282;228;33304;-71
2020/12/21 04:56:42;;;;;;;53.65;31.87;;;;;;;8.07;100.00;101015.36;621623;229;32806;-71
2020/12/21 04:59:10;;;;;;;40.70;24.67;;;;;;;7.51;100.00;101016.73;626931;228;23686;-70
2020/12/21 05:01:39;;;;;;;34.90;20.67;;;;;;;7.31;100.00;101017.61;627138;228;24850;-70
2020/12/21 05:04:07;;;;;;;41.83;23.27;;;;;;;7.22;100.00;101027.31;624388;226;24804;-70
2020/12/21 05:06:35;;;;;;;33.37;19.90;;;;;;;7.13;100.00;101030.03;625652;229;24994;-70
2020/12/21 05:09:04;;;;;;;29.70;19.00;;;;;;;7.14;100.00;101029.57;625729;228;24827;-70
2020/12/21 05:11:32;;;;;;;32.80;20.57;;;;;;;7.16;100.00;101026.41;627207;228;24806;-71
2020/12/21 05:14:07;;;;;;;33.87;18.90;;;;;;;6.99;100.00;101021.55;625490;225;24816;-70
2020/12/21 05:16:34;;;;;;;27.07;17.50;;;;;;;6.89;100.00;101029.07;624919;229;29052;-70
2020/12/21 05:19:02;;;;;;;39.57;19.33;;;;;;;6.94;100.00;101017.16;625598;229;24800;-70
2020/12/21 05:21:30;;;;;;;34.57;20.60;;;;;;;7.02;100.00;101020.86;625194;229;24806;-70
2020/12/21 05:23:59;;;;;;;39.53;22.00;;;;;;;7.08;100.00;101023.53;627571;225;24845;-70
2020/12/21 05:26:28;;;;;;;55.20;30.20;;;;;;;7.51;100.00;101024.50;622333;227;32930;-70
2020/12/21 05:28:56;;;;;;;50.50;29.02;;;;;;;7.62;100.00;101021.53;621695;228;32759;-71
2020/12/21 05:31:24;;;;;;;52.53;30.60;;;;;;;7.78;100.00;101021.77;620729;227;32718;-71
2020/12/21 05:33:52;;;;;;;42.63;24.30;;;;;;;6.93;100.00;101024.08;625876;225;23756;-70
2020/12/21 05:36:20;;;;;;;49.40;28.40;;;;;;;6.77;100.00;101028.61;626194;229;24800;-70
2020/12/21 05:38:55;;;;;;;32.20;21.60;;;;;;;6.66;100.00;101032.36;632469;224;24891;-70
2020/12/21 05:41:23;;;;;;;31.23;19.93;;;;;;;6.72;100.00;101026.77;626829;227;24792;-70
2020/12/21 05:43:51;;;;;;;39.30;25.23;;;;;;;7.11;100.00;101026.73;620654;225;32995;-71
2020/12/21 05:46:20;;;;;;;51.53;25.33;;;;;;;6.88;100.00;101030.47;615335;229;24971;-71
2020/12/21 05:48:47;;;;;;;51.95;31.25;;;;;;;7.41;100.00;101022.99;635986;223;32803;-71
2020/12/21 05:51:21;;;;;;;53.97;33.63;;;;;;;7.60;100.00;101022.55;632825;224;32952;-70
2020/12/21 05:53:49;;;;;;;40.40;26.57;;;;;;;7.54;100.00;101012.16;634039;220;32653;-72
2020/12/21 05:56:17;;;;;;;32.30;19.83;;;;;;;6.90;100.00;101009.22;633973;224;26106;-70
2020/12/21 05:58:44;;;;;;;124.53;23.57;;;;;;;6.55;100.00;101009.32;640227;224;24812;-70
2020/12/21 06:01:12;;;;;;;52.73;17.60;;;;;;;6.36;100.00;101003.70;625976;229;24819;-70
2020/12/21 06:03:41;;;;;;;148.57;17.53;;;;;;;6.26;100.00;101002.62;626915;225;24851;-71
2020/12/21 06:06:11;;;;;;;119.70;17.40;;;;;;;6.13;100.00;100997.41;626847;228;25067;-70
2020/12/21 06:08:39;;;;;;;11.80;9.80;;;;;;;5.82;100.00;101001.05;622566;229;24876;-71
2020/12/21 06:11:11;;;;;;;30.73;14.80;;;;;;;5.90;100.00;101001.88;640318;224;24797;-70
2020/12/21 06:13:41;;;;;;;52.33;17.67;;;;;;;6.16;100.00;101000.25;638979;221;27992;-70
2020/12/21 06:16:08;;;;;;;47.53;19.40;;;;;;;6.11;100.00;100989.39;639769;224;24771;-72
2020/12/21 06:18:36;;;;;;;72.90;34.80;;;;;;;6.81;100.00;100977.06;634746;224;32750;-70
2020/12/21 06:21:04;;;;;;;78.47;20.50;;;;;;;6.32;100.00;100967.80;627672;224;24855;-71
2020/12/21 06:23:37;;;;;;;50.43;27.93;;;;;;;6.23;100.00;100984.27;622963;227;24890;-72
2020/12/21 06:26:08;;;;;;;39.67;22.33;;;;;;;6.15;100.00;100994.25;623618;229;24872;-71
2020/12/21 06:28:37;;;;;;;61.40;32.33;;;;;;;6.88;100.00;100985.22;620415;229;32787;-71
2020/12/21 06:31:13;;;;;;;48.60;24.30;;;;;;;6.43;100.00;100986.86;625091;228;25843;-70
2020/12/21 06:33:41;;;;;;;41.13;20.07;;;;;;;6.15;100.00;100981.80;626635;225;24809;-70
2020/12/21 06:36:09;;;;;;;116.77;24.80;;;;;;;6.02;100.00;100983.50;639632;223;25090;-71
2020/12/21 06:38:44;;;;;;;29.87;20.33;;;;;;;6.09;100.00;100990.78;640519;223;24802;-71
2020/12/21 06:41:16;;;;;;;42.07;22.47;;;;;;;6.19;100.00;100997.46;642209;223;26952;-70
2020/12/21 06:43:56;;;;;;;118.53;27.53;;;;;;;6.42;100.00;100985.20;640177;220;24881;-71
2020/12/21 06:46:25;;;;;;;35.47;20.63;;;;;;;6.23;100.00;100991.20;627009;229;24988;-70
2020/12/21 06:49:02;;;;;;;39.70;22.03;;;;;;;6.32;100.00;100987.17;626915;227;24839;-70
2020/12/21 06:51:30;;;;;;;82.33;25.90;;;;;;;6.33;100.00;100990.95;631174;224;25128;-70
2020/12/21 06:53:58;;;;;;;66.20;21.87;;;;;;;6.20;100.00;100979.78;631233;224;24838;-71
2020/12/21 06:56:26;;;;;;;212.93;30.80;;;;;;;6.33;100.00;100971.58;633928;225;32249;-70
2020/12/21 06:58:55;;;;;;;235.73;32.40;;;;;;;6.39;100.00;100969.08;626958;229;24822;-70
2020/12/21 07:01:23;;;;;;;240.20;29.70;;;;;;;6.43;100.00;100966.19;637497;225;24846;-71
2020/12/21 07:03:51;;;;;;;119.97;28.47;;;;;;;6.50;100.00;100963.58;632519;225;24834;-72
2020/12/21 07:06:19;;;;;;;63.63;22.50;;;;;;;6.34;100.00;100963.39;623882;229;24889;-71
2020/12/21 07:08:47;;;;;;;29.70;18.77;;;;;;;6.26;100.00;100972.91;634303;224;24829;-70
2020/12/21 07:11:18;;;;;;;99.15;30.43;;;;;;;6.90;100.00;100962.23;617575;229;33116;-70
2020/12/21 07:13:46;;;;;;;31.27;20.93;;;;;;;6.46;100.00;100971.61;632628;225;26891;-70
2020/12/21 07:16:15;;;;;;;35.40;20.20;;;;;;;6.44;100.00;100972.18;641063;224;24806;-70
2020/12/21 07:18:43;;;;;;;46.90;21.40;;;;;;;6.38;100.00;100973.42;639896;224;24797;-71
2020/12/21 07:21:11;;;;;;;24.30;18.70;;;;;;;6.24;100.00;100977.35;638831;224;24881;-70
2020/12/21 07:23:38;;;;;;;135.53;20.63;;;;;;;6.38;100.00;100981.63;640876;220;24835;-70
2020/12/21 07:26:07;;;;;;;27.40;17.90;;;;;;;6.18;100.00;100985.48;638349;224;24838;-70
2020/12/21 07:28:34;;;;;;;21.83;16.50;;;;;;;6.20;100.00;100986.23;637967;224;26973;-71
2020/12/21 07:31:05;;;;;;;24.73;16.77;;;;;;;6.25;100.00;100990.17;625659;229;24800;-71
2020/12/21 07:33:34;;;;;;;30.57;16.90;;;;;;;6.32;100.00;100999.63;624766;225;24803;-71
2020/12/21 07:36:02;;;;;;;104.00;21.80;;;;;;;6.33;100.00;101002.58;627460;227;24934;-71
2020/12/21 07:38:30;;;;;;;36.23;23.00;;;;;;;6.71;100.00;100992.80;623982;228;32905;-70
2020/12/21 07:40:57;;;;;;;31.13;19.47;;;;;;;6.18;100.00;100999.68;637990;224;24796;-70
2020/12/21 07:43:27;;;;;;;58.03;20.03;;;;;;;5.95;100.00;101008.44;624440;225;24864;-70
2020/12/21 07:45:59;;;;;;;72.95;26.17;;;;;;;6.71;100.00;101014.31;623354;226;32960;-70
2020/12/21 07:48:27;;;;;;;52.13;20.17;;;;;;;6.24;100.00;101005.30;638227;224;23662;-70
2020/12/21 07:50:55;;;;;;;65.10;20.20;;;;;;;6.16;100.00;101018.33;626440;227;24793;-71
2020/12/21 07:53:23;;;;;;;32.30;17.83;;;;;;;6.28;100.00;101014.97;625507;225;24807;-70
2020/12/21 07:55:57;;;;;;;67.27;21.07;;;;;;;6.35;100.00;101014.13;626613;229;28020;-73
2020/12/21 07:58:25;;;;;;;52.23;18.10;;;;;;;6.19;100.00;101022.86;637809;223;25033;-71
2020/12/21 08:00:55;;;;;;;29.03;17.97;;;;;;;6.28;100.00;101011.09;625759;229;24797;-71
2020/12/21 08:03:23;;;;;;;29.37;16.90;;;;;;;6.41;100.00;101004.22;626783;225;24799;-70
2020/12/21 08:05:51;;;;;;;25.83;17.53;;;;;;;6.48;100.00;101010.66;626502;228;24802;-71
2020/12/21 08:08:22;;;;;;;25.20;17.00;;;;;;;6.50;100.00;101015.27;640015;223;25097;-70
2020/12/21 08:10:56;;;;;;;25.10;17.43;;;;;;;6.54;100.00;101015.42;640245;224;26898;-71
2020/12/21 08:13:24;;;;;;;24.70;16.43;;;;;;;6.56;100.00;101019.19;641475;220;24823;-70
2020/12/21 08:15:52;;;;;;;45.30;23.87;;;;;;;7.28;100.00;101013.12;632838;224;32743;-70
2020/12/21 08:18:20;;;;;;;99.03;24.30;;;;;;;7.04;100.00;101006.10;641362;224;24811;-70
2020/12/21 08:20:50;;;;;;;104.20;24.30;;;;;;;7.02;100.00;101009.23;639574;224;24808;-70
2020/12/21 08:23:24;;;;;;;56.30;21.60;;;;;;;6.91;100.00;101013.02;638226;221;24800;-70
2020/12/21 08:25:52;;;;;;;81.33;24.40;;;;;;;6.94;100.00;101015.39;625751;229;25025;-72
2020/12/21 08:28:28;;;;;;;58.43;23.80;;;;;;;6.85;100.00;101010.82;625066;229;24794;-70
2020/12/21 08:31:04;;;;;;;31.00;19.93;;;;;;;6.74;100.00;101018.45;638855;224;24853;-73
2020/12/21 08:33:31;;;;;;;39.10;24.03;;;;;;;7.31;100.00;101014.19;620064;226;33544;-70
2020/12/21 08:36:00;;;;;;;32.77;21.17;;;;;;;6.98;100.00;101010.37;627480;227;24890;-70
2020/12/21 08:38:28;;;;;;;42.07;25.77;;;;;;;7.60;100.00;101005.28;630782;224;32748;-70
2020/12/21 08:40:56;;;;;;;34.10;21.07;;;;;;;7.08;100.00;101007.54;637985;225;24783;-71
2020/12/21 08:43:24;;;;;;;32.80;19.93;;;;;;;7.11;100.00;101011.20;637544;221;24802;-70
2020/12/21 08:45:53;;;;;;;31.27;20.20;;;;;;;7.04;100.00;101006.10;624037;228;24807;-72
2020/12/21 08:48:20;;;;;;;45.53;22.17;;;;;;;7.21;100.00;101011.89;625224;229;24891;-72
2020/12/21 08:50:48;;;;;;;162.07;27.67;;;;;;;7.25;100.00;101003.81;624842;228;24907;-70
2020/12/21 08:53:17;;;;;;;50.73;23.40;;;;;;;6.78;100.00;100999.24;632526;223;24866;-70
2020/12/21 08:55:45;;;;;;;46.15;28.15;;;;;;;7.33;100.00;101004.59;624061;225;32948;-70
2020/12/21 08:58:13;;;;;;;68.03;27.90;;;;;;;7.16;100.00;101004.42;624977;229;23671;-70
2020/12/21 09:00:41;;;;;;;58.03;29.93;;;;;;;6.95;100.00;101000.23;629715;226;24840;-71
2020/12/21 09:03:09;;;;;;;53.40;35.30;;;;;;;6.90;100.00;100997.14;628263;225;26970;-71
2020/12/21 09:05:39;;;;;;;72.50;32.47;;;;;;;6.88;100.00;101004.14;625767;229;24789;-71
2020/12/21 09:08:06;;;;;;;42.17;28.87;;;;;;;6.88;100.00;101008.02;627038;227;27000;-70
2020/12/21 09:10:34;;;;;;;43.70;28.40;;;;;;;6.92;100.00;101010.80;637246;224;25137;-71
2020/12/21 09:13:03;;;;;;;48.25;32.23;;;;;;;7.66;100.00;101008.73;626542;226;32869;-72
2020/12/21 09:15:31;;;;;;;39.40;27.10;;;;;;;7.07;100.00;101005.89;624863;229;23669;-72
2020/12/21 09:17:59;;;;;;;38.30;26.20;;;;;;;7.11;100.00;101007.80;625453;228;24814;-70
2020/12/21 09:20:27;;;;;;;37.47;24.47;;;;;;;7.10;100.00;101010.84;628750;228;24903;-70
2020/12/21 09:22:55;;;;;;;36.87;23.17;;;;;;;7.11;100.00;101012.50;626835;225;24788;-70
2020/12/21 09:25:23;;;;;;;34.10;24.00;;;;;;;7.19;100.00;101008.12;625116;228;27022;-73
2020/12/21 09:27:50;;;;;;;31.33;21.53;;;;;;;7.30;100.00;101010.78;626638;228;24910;-70
2020/12/21 09:30:18;;;;;;;31.17;21.33;;;;;;;7.34;100.00;101006.25;625983;228;25058;-72
2020/12/21 09:32:46;;;;;;;39.80;25.70;;;;;;;7.99;100.00;100999.05;620928;225;32804;-71
2020/12/21 09:35:14;;;;;;;41.75;26.75;;;;;;;8.13;100.00;100991.58;628381;225;32871;-70
2020/12/21 09:37:42;;;;;;;31.63;21.03;;;;;;;7.46;100.00;100998.94;628707;223;24844;-71
2020/12/21 09:40:10;;;;;;;28.17;19.87;;;;;;;7.34;100.00;101003.66;621595;229;24901;-70
2020/12/21 09:42:38;;;;;;;25.63;18.73;;;;;;;7.27;100.00;101006.28;624846;226;23923;-71
2020/12/21 09:45:06;;;;;;;24.63;16.63;;;;;;;7.26;100.00;101001.58;631306;225;28034;-71
2020/12/21 09:47:34;;;;;;;22.30;16.57;;;;;;;7.37;100.00;101002.98;619812;229;24895;-72
2020/12/21 09:50:02;;;;;;;23.90;16.57;;;;;;;7.48;100.00;100989.30;625204;229;26989;-71
2020/12/21 09:52:30;;;;;;;25.40;17.60;;;;;;;7.56;100.00;100994.77;627767;226;24868;-70
2020/12/21 09:54:57;;;;;;;25.23;19.47;;;;;;;7.52;100.00;100988.16;625918;229;24835;-71
2020/12/21 09:57:25;;;;;;;29.97;19.23;;;;;;;7.46;100.00;100986.00;631572;225;24827;-70
2020/12/21 09:59:53;;;;;;;26.57;18.13;;;;;;;7.49;100.00;100981.90;625023;229;26934;-70
2020/12/21 10:02:21;;;;;;;27.07;18.40;;;;;;;7.51;100.00;100981.33;624283;229;24815;-70
2020/12/21 10:04:49;;;;;;;27.23;19.17;;;;;;;7.56;100.00;100972.77;638908;224;24830;-71
2020/12/21 10:07:17;;;;;;;31.53;20.63;;;;;;;7.73;100.00;100966.39;637519;224;24792;-70
2020/12/21 10:09:45;;;;;;;27.20;18.50;;;;;;;7.73;100.00;100967.22;629048;225;24843;-70
2020/12/21 10:12:13;;;;;;;25.90;17.30;;;;;;;7.70;100.00;100973.09;631317;223;28026;-70
2020/12/21 10:14:43;;;;;;;20.50;15.03;;;;;;;7.61;100.00;100975.05;632753;224;24852;-71
2020/12/21 10:17:09;;;;;;;20.57;15.50;;;;;;;7.76;100.00;100966.67;640686;223;24786;-71
2020/12/21 10:19:37;;;;;;;28.20;20.87;;;;;;;8.28;100.00;100961.14;634693;224;32751;-71
2020/12/21 10:22:05;;;;;;;23.77;17.60;;;;;;;7.88;100.00;100967.07;639497;223;24790;-70
2020/12/21 10:24:33;;;;;;;18.83;14.70;;;;;;;7.90;100.00;100961.34;641040;220;23813;-70
2020/12/21 10:27:01;;;;;;;23.97;16.13;;;;;;;8.08;100.00;100952.24;626186;229;24798;-70
2020/12/21 10:29:29;;;;;;;25.20;17.00;;;;;;;8.20;100.00;100943.58;639222;224;24806;-70
2020/12/21 10:31:58;;;;;;;19.37;14.00;;;;;;;8.10;100.00;100945.18;625935;229;31289;-70
2020/12/21 10:34:26;;;;;;;17.47;13.57;;;;;;;8.25;100.00;100938.87;625757;226;24838;-70
2020/12/21 10:36:54;;;;;;;27.40;17.37;;;;;;;8.50;100.00;100926.75;625114;229;24804;-70
2020/12/21 10:39:22;;;;;;;26.03;18.00;;;;;;;8.47;100.00;100928.27;637455;223;25066;-70
2020/12/21 10:41:50;;;;;;;26.20;16.97;;;;;;;8.47;100.00;100926.51;639259;223;24816;-71
2020/12/21 10:44:18;;;;;;;25.97;16.77;;;;;;;8.39;100.00;100923.64;639295;221;24768;-71
2020/12/21 10:46:45;;;;;;;21.87;15.60;;;;;;;8.49;100.00;100933.70;641088;224;24822;-70
2020/12/21 10:49:13;;;;;;;22.60;14.33;;;;;;;8.40;100.00;100951.69;623437;230;24839;-70
2020/12/21 10:51:41;;;;;;;20.07;15.10;;;;;;;8.40;100.00;100947.80;626280;228;24857;-70
2020/12/21 10:54:09;;;;;;;23.70;15.57;;;;;;;8.44;100.00;100936.25;624937;225;24794;-70
2020/12/21 10:56:37;;;;;;;25.97;18.07;;;;;;;8.38;100.00;100932.83;639804;223;24817;-71
2020/12/21 10:59:05;;;;;;;31.30;18.97;;;;;;;8.70;100.00;100924.77;638753;224;24822;-71
2020/12/21 11:01:33;;;;;;;28.23;17.20;;;;;;;8.77;100.00;100918.66;639652;224;24862;-70
2020/12/21 11:04:01;;;;;;;29.63;18.20;;;;;;;8.83;100.00;100916.42;639540;220;24801;-71
2020/12/21 11:06:29;;;;;;;25.77;16.27;;;;;;;8.99;100.00;100908.29;625102;229;24813;-70
2020/12/21 11:08:59;;;;;;;30.30;17.10;;;;;;;8.88;100.00;100905.24;620211;228;24888;-70
2020/12/21 11:11:26;;;;;;;28.73;17.67;;;;;;;8.82;100.00;100903.09;623558;229;24798;-70
2020/12/21 11:13:55;;;;;;;23.70;16.80;;;;;;;8.76;100.00;100904.05;624928;226;24809;-72